sensor_id;sensor_type;location;lat;lon;timestamp;P1;durP1;ratioP1;P2;durP2;ratioP2
20340;SDS011;10328;50.042;8.238;2022-08-19T00:01:32;20.77;;;14.05;;
20340;SDS011;10328;50.042;8.238;2022-08-19T00:04:05;19.40;;;14.23;;
20340;SDS011;10328;50.042;8.238;2022-08-19T00:06:33;22.45;;;14.63;;
20340;SDS011;10328;50.042;8.238;2022-08-19T00:09:02;18.65;;;13.52;;
20340;SDS011;10328;50.042;8.238;2022-08-19T00:11:30;20.50;;;15.18;;
20340;SDS011;10328;50.042;8.238;2022-08-19T00:13:57;22.98;;;14.60;;
20340;SDS011;10328;50.042;8.238;2022-08-19T00:16:24;16.55;;;13.48;;
20340;SDS011;10328;50.042;8.238;2022-08-19T00:18:53;18.77;;;14.32;;
20340;SDS011;10328;50.042;8.238;2022-08-19T00:21:22;21.25;;;14.57;;
20340;SDS011;10328;50.042;8.238;2022-08-19T00:23:49;18.77;;;14.43;;
20340;SDS011;10328;50.042;8.238;2022-08-19T00:26:16;19.00;;;15.07;;
20340;SDS011;10328;50.042;8.238;2022-08-19T00:28:43;22.55;;;15.68;;
20340;SDS011;10328;50.042;8.238;2022-08-19T00:31:09;21.80;;;15.43;;
20340;SDS011;10328;50.042;8.238;2022-08-19T00:33:36;18.73;;;14.35;;
20340;SDS011;10328;50.042;8.238;2022-08-19T00:36:05;20.88;;;15.77;;
20340;SDS011;10328;50.042;8.238;2022-08-19T00:38:34;21.05;;;15.18;;
20340;SDS011;10328;50.042;8.238;2022-08-19T00:41:03;20.13;;;14.65;;
20340;SDS011;10328;50.042;8.238;2022-08-19T00:43:31;19.77;;;14.48;;
20340;SDS011;10328;50.042;8.238;2022-08-19T00:45:58;20.25;;;15.38;;
20340;SDS011;10328;50.042;8.238;2022-08-19T00:48:24;20.38;;;14.73;;
20340;SDS011;10328;50.042;8.238;2022-08-19T00:50:51;21.48;;;15.13;;
20340;SDS011;10328;50.042;8.238;2022-08-19T00:53:22;21.27;;;14.90;;
20340;SDS011;10328;50.042;8.238;2022-08-19T00:55:53;20.45;;;15.27;;
20340;SDS011;10328;50.042;8.238;2022-08-19T00:58:23;20.20;;;14.07;;
20340;SDS011;10328;50.042;8.238;2022-08-19T01:00:53;21.65;;;15.07;;
20340;SDS011;10328;50.042;8.238;2022-08-19T01:03:20;23.13;;;15.75;;
20340;SDS011;10328;50.042;8.238;2022-08-19T01:05:48;21.35;;;15.18;;
20340;SDS011;10328;50.042;8.238;2022-08-19T01:08:17;20.27;;;14.13;;
20340;SDS011;10328;50.042;8.238;2022-08-19T01:10:47;19.58;;;14.45;;
20340;SDS011;10328;50.042;8.238;2022-08-19T01:13:19;24.38;;;16.00;;
20340;SDS011;10328;50.042;8.238;2022-08-19T01:15:52;19.70;;;14.52;;
20340;SDS011;10328;50.042;8.238;2022-08-19T01:18:26;22.00;;;15.05;;
20340;SDS011;10328;50.042;8.238;2022-08-19T01:20:55;21.08;;;14.82;;
20340;SDS011;10328;50.042;8.238;2022-08-19T01:23:24;23.40;;;14.98;;
20340;SDS011;10328;50.042;8.238;2022-08-19T01:26:13;21.55;;;13.80;;
20340;SDS011;10328;50.042;8.238;2022-08-19T01:28:43;22.23;;;14.18;;
20340;SDS011;10328;50.042;8.238;2022-08-19T01:31:14;18.63;;;13.98;;
20340;SDS011;10328;50.042;8.238;2022-08-19T01:33:53;19.42;;;14.52;;
20340;SDS011;10328;50.042;8.238;2022-08-19T01:36:24;20.98;;;15.18;;
20340;SDS011;10328;50.042;8.238;2022-08-19T01:38:53;23.02;;;14.40;;
20340;SDS011;10328;50.042;8.238;2022-08-19T01:41:20;22.48;;;15.13;;
20340;SDS011;10328;50.042;8.238;2022-08-19T01:43:50;22.83;;;16.45;;
20340;SDS011;10328;50.042;8.238;2022-08-19T01:46:37;21.63;;;15.52;;
20340;SDS011;10328;50.042;8.238;2022-08-19T01:49:05;22.45;;;15.65;;
20340;SDS011;10328;50.042;8.238;2022-08-19T01:51:32;25.77;;;16.02;;
20340;SDS011;10328;50.042;8.238;2022-08-19T01:54:05;21.73;;;14.98;;
20340;SDS011;10328;50.042;8.238;2022-08-19T01:56:32;19.88;;;15.20;;
20340;SDS011;10328;50.042;8.238;2022-08-19T01:59:03;22.02;;;15.45;;
20340;SDS011;10328;50.042;8.238;2022-08-19T02:01:34;20.60;;;14.50;;
20340;SDS011;10328;50.042;8.238;2022-08-19T02:04:01;22.08;;;15.73;;
20340;SDS011;10328;50.042;8.238;2022-08-19T02:06:28;21.90;;;15.02;;
20340;SDS011;10328;50.042;8.238;2022-08-19T02:08:55;18.80;;;13.90;;
20340;SDS011;10328;50.042;8.238;2022-08-19T02:11:24;21.27;;;14.38;;
20340;SDS011;10328;50.042;8.238;2022-08-19T02:13:53;20.15;;;15.02;;
20340;SDS011;10328;50.042;8.238;2022-08-19T02:16:20;19.05;;;14.60;;
20340;SDS011;10328;50.042;8.238;2022-08-19T02:18:47;19.60;;;14.93;;
20340;SDS011;10328;50.042;8.238;2022-08-19T02:21:15;19.13;;;14.10;;
20340;SDS011;10328;50.042;8.238;2022-08-19T02:23:42;18.95;;;14.73;;
20340;SDS011;10328;50.042;8.238;2022-08-19T02:26:10;20.15;;;13.93;;
20340;SDS011;10328;50.042;8.238;2022-08-19T02:28:36;19.70;;;14.90;;
20340;SDS011;10328;50.042;8.238;2022-08-19T02:31:03;22.13;;;15.10;;
20340;SDS011;10328;50.042;8.238;2022-08-19T02:33:40;22.02;;;14.48;;
20340;SDS011;10328;50.042;8.238;2022-08-19T02:36:07;19.50;;;13.77;;
20340;SDS011;10328;50.042;8.238;2022-08-19T02:38:35;21.02;;;14.23;;
20340;SDS011;10328;50.042;8.238;2022-08-19T02:41:07;20.00;;;14.77;;
20340;SDS011;10328;50.042;8.238;2022-08-19T02:43:37;19.02;;;15.05;;
20340;SDS011;10328;50.042;8.238;2022-08-19T02:46:27;19.07;;;13.67;;
20340;SDS011;10328;50.042;8.238;2022-08-19T02:48:56;19.70;;;13.90;;
20340;SDS011;10328;50.042;8.238;2022-08-19T02:51:29;19.53;;;14.30;;
20340;SDS011;10328;50.042;8.238;2022-08-19T02:53:58;18.70;;;13.83;;
20340;SDS011;10328;50.042;8.238;2022-08-19T02:56:26;20.27;;;14.47;;
20340;SDS011;10328;50.042;8.238;2022-08-19T02:58:56;19.80;;;14.40;;
20340;SDS011;10328;50.042;8.238;2022-08-19T03:01:25;19.83;;;14.53;;
20340;SDS011;10328;50.042;8.238;2022-08-19T03:03:54;20.23;;;14.77;;
20340;SDS011;10328;50.042;8.238;2022-08-19T03:06:22;19.67;;;14.30;;
20340;SDS011;10328;50.042;8.238;2022-08-19T03:08:49;19.80;;;14.47;;
20340;SDS011;10328;50.042;8.238;2022-08-19T03:11:20;19.83;;;14.53;;
20340;SDS011;10328;50.042;8.238;2022-08-19T03:13:49;20.17;;;14.43;;
20340;SDS011;10328;50.042;8.238;2022-08-19T03:16:17;17.37;;;13.37;;
20340;SDS011;10328;50.042;8.238;2022-08-19T03:18:45;19.67;;;14.70;;
20340;SDS011;10328;50.042;8.238;2022-08-19T03:21:17;19.23;;;13.93;;
20340;SDS011;10328;50.042;8.238;2022-08-19T03:23:45;19.80;;;14.80;;
20340;SDS011;10328;50.042;8.238;2022-08-19T03:26:12;19.63;;;14.37;;
20340;SDS011;10328;50.042;8.238;2022-08-19T03:28:43;20.43;;;15.03;;
20340;SDS011;10328;50.042;8.238;2022-08-19T03:31:18;19.83;;;14.57;;
20340;SDS011;10328;50.042;8.238;2022-08-19T03:34:08;19.37;;;14.10;;
20340;SDS011;10328;50.042;8.238;2022-08-19T03:36:38;21.23;;;14.83;;
20340;SDS011;10328;50.042;8.238;2022-08-19T03:39:06;20.87;;;14.00;;
20340;SDS011;10328;50.042;8.238;2022-08-19T03:41:36;21.80;;;14.07;;
20340;SDS011;10328;50.042;8.238;2022-08-19T03:44:10;20.53;;;15.67;;
20340;SDS011;10328;50.042;8.238;2022-08-19T03:46:43;17.50;;;13.73;;
20340;SDS011;10328;50.042;8.238;2022-08-19T03:49:11;19.77;;;14.20;;
20340;SDS011;10328;50.042;8.238;2022-08-19T03:51:40;17.27;;;13.83;;
20340;SDS011;10328;50.042;8.238;2022-08-19T03:54:08;19.00;;;13.90;;
20340;SDS011;10328;50.042;8.238;2022-08-19T03:56:37;19.20;;;14.53;;
20340;SDS011;10328;50.042;8.238;2022-08-19T03:59:06;16.83;;;13.07;;
20340;SDS011;10328;50.042;8.238;2022-08-19T04:01:35;18.40;;;13.43;;
20340;SDS011;10328;50.042;8.238;2022-08-19T04:04:02;19.00;;;14.10;;
20340;SDS011;10328;50.042;8.238;2022-08-19T04:06:31;20.23;;;15.30;;
20340;SDS011;10328;50.042;8.238;2022-08-19T04:08:59;22.50;;;15.90;;
20340;SDS011;10328;50.042;8.238;2022-08-19T04:11:28;17.50;;;13.40;;
20340;SDS011;10328;50.042;8.238;2022-08-19T04:14:09;17.07;;;13.23;;
20340;SDS011;10328;50.042;8.238;2022-08-19T04:16:38;17.23;;;13.57;;
20340;SDS011;10328;50.042;8.238;2022-08-19T04:19:05;19.10;;;13.87;;
20340;SDS011;10328;50.042;8.238;2022-08-19T04:21:33;18.33;;;14.07;;
20340;SDS011;10328;50.042;8.238;2022-08-19T04:24:00;17.70;;;13.30;;
20340;SDS011;10328;50.042;8.238;2022-08-19T04:26:30;19.53;;;14.63;;
20340;SDS011;10328;50.042;8.238;2022-08-19T04:29:00;19.27;;;14.10;;
20340;SDS011;10328;50.042;8.238;2022-08-19T04:31:32;18.73;;;14.23;;
20340;SDS011;10328;50.042;8.238;2022-08-19T04:34:05;19.77;;;14.83;;
20340;SDS011;10328;50.042;8.238;2022-08-19T04:36:36;18.87;;;14.50;;
20340;SDS011;10328;50.042;8.238;2022-08-19T04:39:06;19.70;;;13.80;;
20340;SDS011;10328;50.042;8.238;2022-08-19T04:41:38;19.17;;;14.00;;
20340;SDS011;10328;50.042;8.238;2022-08-19T04:44:24;17.90;;;13.60;;
20340;SDS011;10328;50.042;8.238;2022-08-19T04:46:51;17.93;;;13.50;;
20340;SDS011;10328;50.042;8.238;2022-08-19T04:49:19;21.50;;;13.70;;
20340;SDS011;10328;50.042;8.238;2022-08-19T04:51:48;21.27;;;14.10;;
20340;SDS011;10328;50.042;8.238;2022-08-19T04:54:17;20.13;;;14.70;;
20340;SDS011;10328;50.042;8.238;2022-08-19T04:57:04;17.77;;;13.93;;
20340;SDS011;10328;50.042;8.238;2022-08-19T04:59:34;18.03;;;13.40;;
20340;SDS011;10328;50.042;8.238;2022-08-19T05:02:01;20.53;;;13.93;;
20340;SDS011;10328;50.042;8.238;2022-08-19T05:04:28;18.17;;;13.83;;
20340;SDS011;10328;50.042;8.238;2022-08-19T05:06:59;16.87;;;13.20;;
20340;SDS011;10328;50.042;8.238;2022-08-19T05:09:27;17.97;;;13.10;;
20340;SDS011;10328;50.042;8.238;2022-08-19T05:12:15;18.63;;;13.03;;
20340;SDS011;10328;50.042;8.238;2022-08-19T05:14:42;17.73;;;12.50;;
20340;SDS011;10328;50.042;8.238;2022-08-19T05:17:11;18.40;;;12.80;;
20340;SDS011;10328;50.042;8.238;2022-08-19T05:19:58;16.97;;;12.67;;
20340;SDS011;10328;50.042;8.238;2022-08-19T05:22:44;16.03;;;12.00;;
20340;SDS011;10328;50.042;8.238;2022-08-19T05:25:12;18.35;;;12.38;;
20340;SDS011;10328;50.042;8.238;2022-08-19T05:27:44;17.02;;;11.93;;
20340;SDS011;10328;50.042;8.238;2022-08-19T05:30:12;15.35;;;12.02;;
20340;SDS011;10328;50.042;8.238;2022-08-19T05:32:39;17.75;;;11.82;;
20340;SDS011;10328;50.042;8.238;2022-08-19T05:35:06;17.63;;;12.18;;
20340;SDS011;10328;50.042;8.238;2022-08-19T05:37:33;15.23;;;11.23;;
20340;SDS011;10328;50.042;8.238;2022-08-19T05:40:00;16.73;;;11.93;;
20340;SDS011;10328;50.042;8.238;2022-08-19T05:42:27;17.17;;;12.18;;
20340;SDS011;10328;50.042;8.238;2022-08-19T05:44:54;16.67;;;11.88;;
20340;SDS011;10328;50.042;8.238;2022-08-19T05:47:22;17.13;;;11.88;;
20340;SDS011;10328;50.042;8.238;2022-08-19T05:49:49;14.93;;;11.23;;
20340;SDS011;10328;50.042;8.238;2022-08-19T05:52:17;17.38;;;12.20;;
20340;SDS011;10328;50.042;8.238;2022-08-19T05:54:51;15.88;;;11.40;;
20340;SDS011;10328;50.042;8.238;2022-08-19T05:57:20;17.60;;;11.77;;
20340;SDS011;10328;50.042;8.238;2022-08-19T05:59:47;15.57;;;11.43;;
20340;SDS011;10328;50.042;8.238;2022-08-19T06:02:18;16.02;;;10.90;;
20340;SDS011;10328;50.042;8.238;2022-08-19T06:04:44;14.80;;;11.52;;
20340;SDS011;10328;50.042;8.238;2022-08-19T06:07:11;13.45;;;10.18;;
20340;SDS011;10328;50.042;8.238;2022-08-19T06:09:38;13.95;;;10.63;;
20340;SDS011;10328;50.042;8.238;2022-08-19T06:12:08;16.33;;;10.60;;
20340;SDS011;10328;50.042;8.238;2022-08-19T06:14:35;13.40;;;9.90;;
20340;SDS011;10328;50.042;8.238;2022-08-19T06:17:06;16.17;;;10.30;;
20340;SDS011;10328;50.042;8.238;2022-08-19T06:19:33;13.15;;;10.48;;
20340;SDS011;10328;50.042;8.238;2022-08-19T06:22:06;14.73;;;10.55;;
20340;SDS011;10328;50.042;8.238;2022-08-19T06:24:34;12.70;;;10.05;;
20340;SDS011;10328;50.042;8.238;2022-08-19T06:27:01;12.02;;;9.25;;
20340;SDS011;10328;50.042;8.238;2022-08-19T06:29:29;15.07;;;9.90;;
20340;SDS011;10328;50.042;8.238;2022-08-19T06:31:56;13.35;;;10.15;;
20340;SDS011;10328;50.042;8.238;2022-08-19T06:34:26;12.60;;;9.20;;
20340;SDS011;10328;50.042;8.238;2022-08-19T06:36:55;11.85;;;10.00;;
20340;SDS011;10328;50.042;8.238;2022-08-19T06:39:24;14.70;;;8.95;;
20340;SDS011;10328;50.042;8.238;2022-08-19T06:41:56;12.75;;;9.55;;
20340;SDS011;10328;50.042;8.238;2022-08-19T06:44:28;11.73;;;8.98;;
20340;SDS011;10328;50.042;8.238;2022-08-19T06:47:06;11.63;;;8.75;;
20340;SDS011;10328;50.042;8.238;2022-08-19T06:49:40;11.48;;;8.35;;
20340;SDS011;10328;50.042;8.238;2022-08-19T06:52:07;12.77;;;10.07;;
20340;SDS011;10328;50.042;8.238;2022-08-19T06:54:39;15.50;;;9.27;;
20340;SDS011;10328;50.042;8.238;2022-08-19T06:57:22;14.25;;;9.20;;
20340;SDS011;10328;50.042;8.238;2022-08-19T06:59:49;12.98;;;9.27;;
20340;SDS011;10328;50.042;8.238;2022-08-19T07:02:16;13.15;;;8.95;;
20340;SDS011;10328;50.042;8.238;2022-08-19T07:04:43;13.48;;;9.27;;
20340;SDS011;10328;50.042;8.238;2022-08-19T07:07:12;13.57;;;10.05;;
20340;SDS011;10328;50.042;8.238;2022-08-19T07:09:46;11.60;;;8.90;;
20340;SDS011;10328;50.042;8.238;2022-08-19T07:12:25;12.77;;;9.25;;
20340;SDS011;10328;50.042;8.238;2022-08-19T07:14:54;13.85;;;8.82;;
20340;SDS011;10328;50.042;8.238;2022-08-19T07:17:22;10.48;;;8.02;;
20340;SDS011;10328;50.042;8.238;2022-08-19T07:19:50;12.55;;;9.27;;
20340;SDS011;10328;50.042;8.238;2022-08-19T07:22:19;11.65;;;8.80;;
20340;SDS011;10328;50.042;8.238;2022-08-19T07:24:49;11.95;;;8.85;;
20340;SDS011;10328;50.042;8.238;2022-08-19T07:27:17;11.95;;;8.57;;
20340;SDS011;10328;50.042;8.238;2022-08-19T07:29:50;10.85;;;8.80;;
20340;SDS011;10328;50.042;8.238;2022-08-19T07:32:23;10.38;;;8.30;;
20340;SDS011;10328;50.042;8.238;2022-08-19T07:34:54;11.63;;;8.73;;
20340;SDS011;10328;50.042;8.238;2022-08-19T07:37:22;11.32;;;8.77;;
20340;SDS011;10328;50.042;8.238;2022-08-19T07:39:55;10.05;;;7.95;;
20340;SDS011;10328;50.042;8.238;2022-08-19T07:42:22;11.93;;;8.77;;
20340;SDS011;10328;50.042;8.238;2022-08-19T07:44:49;12.88;;;8.13;;
20340;SDS011;10328;50.042;8.238;2022-08-19T07:47:16;15.82;;;9.30;;
20340;SDS011;10328;50.042;8.238;2022-08-19T07:50:04;10.98;;;8.27;;
20340;SDS011;10328;50.042;8.238;2022-08-19T07:52:33;11.93;;;8.60;;
20340;SDS011;10328;50.042;8.238;2022-08-19T07:55:02;13.43;;;8.38;;
20340;SDS011;10328;50.042;8.238;2022-08-19T07:57:30;13.90;;;10.00;;
20340;SDS011;10328;50.042;8.238;2022-08-19T07:59:57;12.40;;;9.10;;
20340;SDS011;10328;50.042;8.238;2022-08-19T08:02:23;13.75;;;10.50;;
20340;SDS011;10328;50.042;8.238;2022-08-19T08:04:50;13.85;;;9.90;;
20340;SDS011;10328;50.042;8.238;2022-08-19T08:07:35;14.23;;;11.23;;
20340;SDS011;10328;50.042;8.238;2022-08-19T08:10:20;14.88;;;11.60;;
20340;SDS011;10328;50.042;8.238;2022-08-19T08:12:50;16.85;;;11.60;;
20340;SDS011;10328;50.042;8.238;2022-08-19T08:15:36;17.75;;;13.18;;
20340;SDS011;10328;50.042;8.238;2022-08-19T08:18:09;20.85;;;13.95;;
20340;SDS011;10328;50.042;8.238;2022-08-19T08:20:37;23.67;;;15.02;;
20340;SDS011;10328;50.042;8.238;2022-08-19T08:23:04;21.30;;;15.40;;
20340;SDS011;10328;50.042;8.238;2022-08-19T08:25:52;20.08;;;14.98;;
20340;SDS011;10328;50.042;8.238;2022-08-19T08:28:21;19.88;;;14.23;;
20340;SDS011;10328;50.042;8.238;2022-08-19T08:30:49;19.77;;;14.90;;
20340;SDS011;10328;50.042;8.238;2022-08-19T08:33:17;19.95;;;14.45;;
20340;SDS011;10328;50.042;8.238;2022-08-19T08:36:00;18.08;;;14.27;;
20340;SDS011;10328;50.042;8.238;2022-08-19T08:38:31;20.67;;;14.48;;
20340;SDS011;10328;50.042;8.238;2022-08-19T08:41:08;18.38;;;13.82;;
20340;SDS011;10328;50.042;8.238;2022-08-19T08:43:40;19.95;;;14.93;;
20340;SDS011;10328;50.042;8.238;2022-08-19T08:46:53;20.88;;;14.13;;
20340;SDS011;10328;50.042;8.238;2022-08-19T08:52:22;19.52;;;13.98;;
20340;SDS011;10328;50.042;8.238;2022-08-19T08:54:59;16.60;;;12.85;;
20340;SDS011;10328;50.042;8.238;2022-08-19T08:57:39;17.88;;;12.10;;
20340;SDS011;10328;50.042;8.238;2022-08-19T09:00:18;18.55;;;11.27;;
20340;SDS011;10328;50.042;8.238;2022-08-19T09:02:47;15.02;;;11.70;;
20340;SDS011;10328;50.042;8.238;2022-08-19T09:05:17;17.77;;;10.98;;
20340;SDS011;10328;50.042;8.238;2022-08-19T09:07:52;18.63;;;11.50;;
20340;SDS011;10328;50.042;8.238;2022-08-19T09:10:29;19.00;;;12.20;;
20340;SDS011;10328;50.042;8.238;2022-08-19T09:13:16;19.85;;;12.30;;
20340;SDS011;10328;50.042;8.238;2022-08-19T09:15:53;16.17;;;12.00;;
20340;SDS011;10328;50.042;8.238;2022-08-19T09:18:24;15.98;;;11.07;;
20340;SDS011;10328;50.042;8.238;2022-08-19T09:20:54;14.50;;;11.63;;
20340;SDS011;10328;50.042;8.238;2022-08-19T09:23:22;15.07;;;11.27;;
20340;SDS011;10328;50.042;8.238;2022-08-19T09:25:52;16.52;;;14.68;;
20340;SDS011;10328;50.042;8.238;2022-08-19T09:28:19;17.23;;;14.85;;
20340;SDS011;10328;50.042;8.238;2022-08-19T09:30:52;17.55;;;14.85;;
20340;SDS011;10328;50.042;8.238;2022-08-19T09:33:19;19.13;;;16.13;;
20340;SDS011;10328;50.042;8.238;2022-08-19T09:35:46;18.92;;;16.70;;
20340;SDS011;10328;50.042;8.238;2022-08-19T09:38:18;19.00;;;15.48;;
20340;SDS011;10328;50.042;8.238;2022-08-19T09:40:46;18.17;;;14.75;;
20340;SDS011;10328;50.042;8.238;2022-08-19T09:43:13;15.82;;;14.10;;
20340;SDS011;10328;50.042;8.238;2022-08-19T09:45:58;16.63;;;14.27;;
20340;SDS011;10328;50.042;8.238;2022-08-19T09:48:26;19.38;;;14.02;;
20340;SDS011;10328;50.042;8.238;2022-08-19T09:50:53;15.75;;;13.80;;
20340;SDS011;10328;50.042;8.238;2022-08-19T09:53:20;16.38;;;13.85;;
20340;SDS011;10328;50.042;8.238;2022-08-19T09:55:50;16.75;;;13.05;;
20340;SDS011;10328;50.042;8.238;2022-08-19T09:58:17;15.77;;;12.38;;
20340;SDS011;10328;50.042;8.238;2022-08-19T10:00:49;14.57;;;12.63;;
20340;SDS011;10328;50.042;8.238;2022-08-19T10:03:16;13.05;;;11.18;;
20340;SDS011;10328;50.042;8.238;2022-08-19T10:05:43;13.38;;;11.98;;
20340;SDS011;10328;50.042;8.238;2022-08-19T10:08:22;13.30;;;10.65;;
20340;SDS011;10328;50.042;8.238;2022-08-19T10:10:52;12.88;;;11.15;;
20340;SDS011;10328;50.042;8.238;2022-08-19T10:13:21;14.68;;;10.60;;
20340;SDS011;10328;50.042;8.238;2022-08-19T10:15:51;12.80;;;11.25;;
20340;SDS011;10328;50.042;8.238;2022-08-19T10:18:20;14.23;;;10.70;;
20340;SDS011;10328;50.042;8.238;2022-08-19T10:20:50;12.10;;;9.57;;
20340;SDS011;10328;50.042;8.238;2022-08-19T10:23:20;10.70;;;9.45;;
20340;SDS011;10328;50.042;8.238;2022-08-19T10:25:48;11.85;;;8.93;;
20340;SDS011;10328;50.042;8.238;2022-08-19T10:28:15;10.95;;;8.90;;
20340;SDS011;10328;50.042;8.238;2022-08-19T10:30:44;11.80;;;7.97;;
20340;SDS011;10328;50.042;8.238;2022-08-19T10:33:11;12.55;;;8.65;;
20340;SDS011;10328;50.042;8.238;2022-08-19T10:35:39;11.02;;;8.82;;
20340;SDS011;10328;50.042;8.238;2022-08-19T10:38:22;10.10;;;9.05;;
20340;SDS011;10328;50.042;8.238;2022-08-19T10:40:58;9.38;;;7.78;;
20340;SDS011;10328;50.042;8.238;2022-08-19T10:43:40;9.27;;;8.23;;
20340;SDS011;10328;50.042;8.238;2022-08-19T10:46:13;9.90;;;7.78;;
20340;SDS011;10328;50.042;8.238;2022-08-19T10:48:42;10.02;;;8.15;;
20340;SDS011;10328;50.042;8.238;2022-08-19T10:51:10;9.27;;;8.05;;
20340;SDS011;10328;50.042;8.238;2022-08-19T10:53:57;9.60;;;8.60;;
20340;SDS011;10328;50.042;8.238;2022-08-19T10:56:25;11.35;;;8.68;;
20340;SDS011;10328;50.042;8.238;2022-08-19T10:59:11;9.25;;;8.25;;
20340;SDS011;10328;50.042;8.238;2022-08-19T11:01:40;9.55;;;7.50;;
20340;SDS011;10328;50.042;8.238;2022-08-19T11:04:08;8.38;;;7.47;;
20340;SDS011;10328;50.042;8.238;2022-08-19T11:06:40;8.82;;;7.63;;
20340;SDS011;10328;50.042;8.238;2022-08-19T11:09:09;7.13;;;6.43;;
20340;SDS011;10328;50.042;8.238;2022-08-19T11:11:37;7.07;;;5.82;;
20340;SDS011;10328;50.042;8.238;2022-08-19T11:14:07;7.82;;;5.97;;
20340;SDS011;10328;50.042;8.238;2022-08-19T11:16:40;7.22;;;6.35;;
20340;SDS011;10328;50.042;8.238;2022-08-19T11:19:09;6.80;;;6.13;;
20340;SDS011;10328;50.042;8.238;2022-08-19T11:21:38;8.57;;;6.55;;
20340;SDS011;10328;50.042;8.238;2022-08-19T11:24:08;9.05;;;7.72;;
20340;SDS011;10328;50.042;8.238;2022-08-19T11:26:37;8.10;;;6.50;;
20340;SDS011;10328;50.042;8.238;2022-08-19T11:29:05;9.05;;;6.93;;
20340;SDS011;10328;50.042;8.238;2022-08-19T11:31:37;7.28;;;6.57;;
20340;SDS011;10328;50.042;8.238;2022-08-19T11:34:08;7.22;;;6.53;;
20340;SDS011;10328;50.042;8.238;2022-08-19T11:36:39;8.05;;;7.20;;
20340;SDS011;10328;50.042;8.238;2022-08-19T11:39:09;7.78;;;6.90;;
20340;SDS011;10328;50.042;8.238;2022-08-19T11:41:37;6.95;;;6.30;;
20340;SDS011;10328;50.042;8.238;2022-08-19T11:44:04;7.28;;;6.57;;
20340;SDS011;10328;50.042;8.238;2022-08-19T11:46:37;6.88;;;6.18;;
20340;SDS011;10328;50.042;8.238;2022-08-19T11:49:04;7.50;;;6.18;;
20340;SDS011;10328;50.042;8.238;2022-08-19T11:51:39;7.10;;;6.40;;
20340;SDS011;10328;50.042;8.238;2022-08-19T11:54:05;6.93;;;6.32;;
20340;SDS011;10328;50.042;8.238;2022-08-19T11:56:32;8.18;;;6.45;;
20340;SDS011;10328;50.042;8.238;2022-08-19T11:59:00;7.45;;;6.72;;
20340;SDS011;10328;50.042;8.238;2022-08-19T12:01:27;7.80;;;7.00;;
20340;SDS011;10328;50.042;8.238;2022-08-19T12:03:54;6.90;;;6.13;;
20340;SDS011;10328;50.042;8.238;2022-08-19T12:06:26;9.93;;;6.18;;
20340;SDS011;10328;50.042;8.238;2022-08-19T12:08:55;6.75;;;6.00;;
20340;SDS011;10328;50.042;8.238;2022-08-19T12:11:23;9.38;;;6.25;;
20340;SDS011;10328;50.042;8.238;2022-08-19T12:13:50;6.55;;;5.95;;
20340;SDS011;10328;50.042;8.238;2022-08-19T12:16:17;8.02;;;6.53;;
20340;SDS011;10328;50.042;8.238;2022-08-19T12:18:49;7.22;;;6.53;;
20340;SDS011;10328;50.042;8.238;2022-08-19T12:21:22;9.77;;;6.60;;
20340;SDS011;10328;50.042;8.238;2022-08-19T12:23:51;7.53;;;6.72;;
20340;SDS011;10328;50.042;8.238;2022-08-19T12:26:21;7.28;;;6.57;;
20340;SDS011;10328;50.042;8.238;2022-08-19T12:28:48;7.28;;;6.57;;
20340;SDS011;10328;50.042;8.238;2022-08-19T12:31:16;9.23;;;6.60;;
20340;SDS011;10328;50.042;8.238;2022-08-19T12:33:43;8.15;;;6.57;;
20340;SDS011;10328;50.042;8.238;2022-08-19T12:36:10;7.65;;;6.47;;
20340;SDS011;10328;50.042;8.238;2022-08-19T12:38:39;7.55;;;6.40;;
20340;SDS011;10328;50.042;8.238;2022-08-19T12:41:08;10.85;;;6.03;;
20340;SDS011;10328;50.042;8.238;2022-08-19T12:43:36;6.15;;;5.55;;
20340;SDS011;10328;50.042;8.238;2022-08-19T12:46:07;7.10;;;6.40;;
20340;SDS011;10328;50.042;8.238;2022-08-19T12:48:37;7.75;;;6.15;;
20340;SDS011;10328;50.042;8.238;2022-08-19T12:51:11;13.65;;;7.20;;
20340;SDS011;10328;50.042;8.238;2022-08-19T12:53:40;8.48;;;6.47;;
20340;SDS011;10328;50.042;8.238;2022-08-19T12:56:08;8.27;;;6.40;;
20340;SDS011;10328;50.042;8.238;2022-08-19T12:58:37;7.13;;;6.20;;
20340;SDS011;10328;50.042;8.238;2022-08-19T13:01:11;9.32;;;6.30;;
20340;SDS011;10328;50.042;8.238;2022-08-19T13:03:44;8.73;;;6.88;;
20340;SDS011;10328;50.042;8.238;2022-08-19T13:06:11;6.90;;;6.22;;
20340;SDS011;10328;50.042;8.238;2022-08-19T13:08:44;8.43;;;5.95;;
20340;SDS011;10328;50.042;8.238;2022-08-19T13:11:12;7.03;;;5.72;;
20340;SDS011;10328;50.042;8.238;2022-08-19T13:13:42;6.18;;;5.55;;
20340;SDS011;10328;50.042;8.238;2022-08-19T13:16:11;6.10;;;5.50;;
20340;SDS011;10328;50.042;8.238;2022-08-19T13:18:39;6.47;;;5.82;;
20340;SDS011;10328;50.042;8.238;2022-08-19T13:21:08;6.43;;;5.82;;
20340;SDS011;10328;50.042;8.238;2022-08-19T13:23:37;7.18;;;5.68;;
20340;SDS011;10328;50.042;8.238;2022-08-19T13:26:05;5.90;;;5.30;;
20340;SDS011;10328;50.042;8.238;2022-08-19T13:28:33;5.85;;;5.32;;
20340;SDS011;10328;50.042;8.238;2022-08-19T13:31:21;6.30;;;5.70;;
20340;SDS011;10328;50.042;8.238;2022-08-19T13:34:08;7.05;;;6.15;;
20340;SDS011;10328;50.042;8.238;2022-08-19T13:36:35;6.72;;;6.13;;
20340;SDS011;10328;50.042;8.238;2022-08-19T13:39:03;6.97;;;6.28;;
20340;SDS011;10328;50.042;8.238;2022-08-19T13:41:31;10.95;;;6.50;;
20340;SDS011;10328;50.042;8.238;2022-08-19T13:43:58;6.63;;;6.03;;
20340;SDS011;10328;50.042;8.238;2022-08-19T13:46:24;7.05;;;6.30;;
20340;SDS011;10328;50.042;8.238;2022-08-19T13:48:53;7.45;;;6.25;;
20340;SDS011;10328;50.042;8.238;2022-08-19T13:51:19;8.32;;;6.43;;
20340;SDS011;10328;50.042;8.238;2022-08-19T13:53:46;8.25;;;7.03;;
20340;SDS011;10328;50.042;8.238;2022-08-19T13:56:14;8.60;;;7.35;;
20340;SDS011;10328;50.042;8.238;2022-08-19T13:58:42;9.10;;;7.45;;
20340;SDS011;10328;50.042;8.238;2022-08-19T14:01:09;8.68;;;7.25;;
20340;SDS011;10328;50.042;8.238;2022-08-19T14:03:37;8.45;;;6.80;;
20340;SDS011;10328;50.042;8.238;2022-08-19T14:06:04;11.02;;;6.30;;
20340;SDS011;10328;50.042;8.238;2022-08-19T14:08:31;7.07;;;6.28;;
20340;SDS011;10328;50.042;8.238;2022-08-19T14:10:58;6.90;;;6.20;;
20340;SDS011;10328;50.042;8.238;2022-08-19T14:13:31;7.20;;;6.50;;
20340;SDS011;10328;50.042;8.238;2022-08-19T14:15:59;7.63;;;6.68;;
20340;SDS011;10328;50.042;8.238;2022-08-19T14:18:26;7.70;;;6.30;;
20340;SDS011;10328;50.042;8.238;2022-08-19T14:20:56;7.85;;;6.95;;
20340;SDS011;10328;50.042;8.238;2022-08-19T14:23:24;7.97;;;7.18;;
20340;SDS011;10328;50.042;8.238;2022-08-19T14:25:50;8.43;;;7.15;;
20340;SDS011;10328;50.042;8.238;2022-08-19T14:28:17;7.85;;;6.72;;
20340;SDS011;10328;50.042;8.238;2022-08-19T14:30:44;7.00;;;6.30;;
20340;SDS011;10328;50.042;8.238;2022-08-19T14:33:10;7.30;;;6.60;;
20340;SDS011;10328;50.042;8.238;2022-08-19T14:35:37;7.40;;;6.50;;
20340;SDS011;10328;50.042;8.238;2022-08-19T14:38:04;7.18;;;5.95;;
20340;SDS011;10328;50.042;8.238;2022-08-19T14:40:32;8.48;;;6.63;;
20340;SDS011;10328;50.042;8.238;2022-08-19T14:43:00;6.57;;;5.93;;
20340;SDS011;10328;50.042;8.238;2022-08-19T14:45:34;8.18;;;6.55;;
20340;SDS011;10328;50.042;8.238;2022-08-19T14:48:06;8.35;;;6.55;;
20340;SDS011;10328;50.042;8.238;2022-08-19T14:50:44;6.85;;;5.97;;
20340;SDS011;10328;50.042;8.238;2022-08-19T14:53:11;6.72;;;5.57;;